createdAt,value
2022-08-10T00:02:17.982Z,56.69
2022-08-10T00:04:44.853Z,56.62
2022-08-10T00:07:11.940Z,57.15
2022-08-10T00:09:50.956Z,56.95
2022-08-10T00:12:19.693Z,57.02
2022-08-10T00:14:46.479Z,57.27
2022-08-10T00:17:13.148Z,57.64
2022-08-10T00:20:02.525Z,57.79
2022-08-10T00:22:26.462Z,57.81
2022-08-10T05:48:59.668Z,62.47
2022-08-10T05:51:28.758Z,62.73
2022-08-10T05:54:02.531Z,62.56
2022-08-10T05:56:55.979Z,62.70
2022-08-10T06:00:35.616Z,62.67
2022-08-10T06:02:31.588Z,62.61
2022-08-10T06:05:05.380Z,62.81
2022-08-10T06:07:33.205Z,62.88
2022-08-10T06:10:01.212Z,62.00
2022-08-10T06:12:30.508Z,61.37
2022-08-10T06:15:10.168Z,61.42
2022-08-10T06:17:37.399Z,60.37
2022-08-10T06:20:04.677Z,60.27
2022-08-10T06:22:35.484Z,59.72
2022-08-10T06:27:50.945Z,59.19
2022-08-10T06:30:20.028Z,58.62
2022-08-10T06:32:53.506Z,58.55
2022-08-10T06:35:20.811Z,57.96
2022-08-10T06:37:51.412Z,58.18
2022-08-10T06:40:19.871Z,58.04
2022-08-10T06:42:51.217Z,56.92
2022-08-10T06:45:31.238Z,57.15
2022-08-10T06:48:06.381Z,56.52
2022-08-10T06:50:56.426Z,55.74
2022-08-10T06:53:25.748Z,55.23
2022-08-10T06:56:16.070Z,54.90
2022-08-10T06:59:02.967Z,54.42
2022-08-10T07:01:34.470Z,54.18
2022-08-10T07:04:32.902Z,53.42
2022-08-10T07:07:04.171Z,52.93
2022-08-10T07:09:34.979Z,53.05
2022-08-10T07:12:08.417Z,53.17
2022-08-10T07:14:44.904Z,52.45
2022-08-10T07:17:18.237Z,51.65
2022-08-10T07:19:49.805Z,51.53
2022-08-10T07:23:27.060Z,49.37
2022-08-10T07:25:09.889Z,47.55
2022-08-10T07:28:00.060Z,46.96
2022-08-10T07:30:31.048Z,46.51
2022-08-10T07:33:00.339Z,46.17
2022-08-10T07:35:33.222Z,45.96
2022-08-10T07:38:06.351Z,46.13
2022-08-10T07:40:34.039Z,45.82
2022-08-10T07:43:02.157Z,45.16
2022-08-10T07:45:33.368Z,45.71
2022-08-10T07:48:07.515Z,45.56
2022-08-10T07:50:38.068Z,45.77
2022-08-10T07:53:08.589Z,45.60
2022-08-10T07:56:01.632Z,45.21
2022-08-10T07:58:30.126Z,44.89
2022-08-10T08:00:58.372Z,45.35
2022-08-10T08:03:28.698Z,44.73
2022-08-10T08:06:02.512Z,44.72
2022-08-10T08:08:33.563Z,45.01
2022-08-10T08:11:01.362Z,43.29
2022-08-10T08:13:29.503Z,43.50
2022-08-10T08:16:18.641Z,43.31
2022-08-10T08:19:03.697Z,42.07
2022-08-10T08:24:09.793Z,42.11
2022-08-10T08:24:32.374Z,42.15
2022-08-10T08:27:03.014Z,42.20
2022-08-10T08:29:33.167Z,41.70
2022-08-10T08:32:03.392Z,41.41
2022-08-10T08:34:36.562Z,41.80
2022-08-10T08:37:04.987Z,41.55
2022-08-10T08:39:33.124Z,41.44
2022-08-10T08:42:27.639Z,41.42
2022-08-10T08:45:06.690Z,41.20
2022-08-10T08:48:03.986Z,40.70
2022-08-10T08:50:56.704Z,40.92
2022-08-10T08:54:02.071Z,40.89
2022-08-10T08:56:39.852Z,39.80
2022-08-10T08:59:31.382Z,40.18
2022-08-10T09:02:07.843Z,39.56
2022-08-10T09:04:44.956Z,38.73
2022-08-10T09:07:59.870Z,38.56
2022-08-10T09:10:53.996Z,38.40
2022-08-10T09:13:29.458Z,37.80
2022-08-10T09:16:02.192Z,38.58
2022-08-10T09:18:41.983Z,37.87
2022-08-10T09:21:19.631Z,38.26
2022-08-10T09:24:01.407Z,37.31
2022-08-10T09:26:37.917Z,38.35
2022-08-10T09:29:12.566Z,38.36
2022-08-10T09:33:05.331Z,38.75
2022-08-10T09:36:24.600Z,38.03
2022-08-10T09:38:58.675Z,38.06
2022-08-10T09:41:37.727Z,38.01
2022-08-10T09:44:13.537Z,38.07
2022-08-10T09:46:52.145Z,36.76
2022-08-10T09:50:04.212Z,35.22
2022-08-10T09:53:04.098Z,36.13
2022-08-10T09:56:26.705Z,36.52
2022-08-10T09:59:47.283Z,37.12
2022-08-10T10:02:35.731Z,37.02
2022-08-10T10:05:36.168Z,35.80
2022-08-10T10:08:02.756Z,35.51
2022-08-10T10:10:35.966Z,34.47
2022-08-10T10:13:44.743Z,34.19
2022-08-10T10:16:20.274Z,35.27
2022-08-10T10:19:04.419Z,35.59
2022-08-10T10:21:54.409Z,35.04
2022-08-10T10:24:41.195Z,34.61
2022-08-10T10:27:21.285Z,33.82
2022-08-10T10:30:10.139Z,34.87
2022-08-10T10:32:55.868Z,34.34
2022-08-10T10:35:38.520Z,34.40
2022-08-10T10:38:09.778Z,35.00
2022-08-10T10:40:54.319Z,34.51
2022-08-10T10:43:48.681Z,33.54
2022-08-10T10:46:33.395Z,32.53
2022-08-10T10:49:22.373Z,31.79
2022-08-10T10:52:17.416Z,30.71
2022-08-10T10:54:56.432Z,30.90
2022-08-10T10:57:59.134Z,31.00
2022-08-10T11:00:22.134Z,31.68
2022-08-10T11:03:00.834Z,32.72
2022-08-10T11:05:42.923Z,32.82
2022-08-10T11:08:17.373Z,33.03
2022-08-10T11:10:54.328Z,33.38
2022-08-10T11:14:27.565Z,34.03
2022-08-10T11:16:37.235Z,34.66
2022-08-10T11:20:01.599Z,35.25
2022-08-10T11:22:46.589Z,34.35
2022-08-10T11:25:25.173Z,33.66
2022-08-10T11:28:07.721Z,32.88
2022-08-10T11:30:49.781Z,31.60
2022-08-10T11:34:04.046Z,30.69
2022-08-10T11:36:42.846Z,31.40
2022-08-10T11:39:30.065Z,32.21
2022-08-10T11:42:07.739Z,31.89
2022-08-10T11:45:00.777Z,32.52
2022-08-10T11:47:34.273Z,31.93
2022-08-10T11:50:10.143Z,32.47
2022-08-10T11:52:41.159Z,32.29
2022-08-10T11:55:15.561Z,32.36
2022-08-10T11:57:54.859Z,31.32
2022-08-10T12:00:24.174Z,31.36
2022-08-10T12:02:56.598Z,31.61
2022-08-10T12:05:51.760Z,31.65
2022-08-10T12:10:01.775Z,31.22
2022-08-10T12:11:08.905Z,30.88
2022-08-10T12:14:10.671Z,30.21
2022-08-10T12:16:40.017Z,30.18
2022-08-10T12:19:18.925Z,29.68
2022-08-10T12:21:50.518Z,30.73
2022-08-10T12:24:27.797Z,29.68
2022-08-10T12:27:02.693Z,30.54
2022-08-10T12:29:42.054Z,28.27
2022-08-10T12:32:17.849Z,29.15
2022-08-10T12:35:04.107Z,28.21
2022-08-10T12:37:58.115Z,26.93
2022-08-10T12:40:37.755Z,26.36
2022-08-10T12:44:03.944Z,26.48
2022-08-10T12:46:30.874Z,26.70
2022-08-10T12:49:11.758Z,26.55
2022-08-10T12:51:49.645Z,26.68
2022-08-10T12:54:31.839Z,27.24
2022-08-10T12:57:05.775Z,27.38
2022-08-10T12:59:33.575Z,27.56
2022-08-10T13:02:14.817Z,27.21
2022-08-10T13:04:43.140Z,26.35
2022-08-10T13:07:10.511Z,24.97
2022-08-10T13:10:06.846Z,23.81
2022-08-10T13:12:40.382Z,22.78
2022-08-10T13:15:45.074Z,22.57
2022-08-10T13:18:18.919Z,22.75
2022-08-10T13:20:52.073Z,23.93
2022-08-10T13:23:24.998Z,24.45
2022-08-10T13:25:53.760Z,25.69
2022-08-10T13:28:35.964Z,25.75
2022-08-10T13:31:16.707Z,25.90
2022-08-10T13:34:41.246Z,25.58
2022-08-10T13:36:41.630Z,26.53
2022-08-10T13:39:11.348Z,26.34
2022-08-10T13:41:41.043Z,25.52
2022-08-10T13:44:11.372Z,24.04
2022-08-10T13:46:42.199Z,24.85
2022-08-10T13:49:11.223Z,25.60
2022-08-10T13:51:57.427Z,25.99
2022-08-10T13:54:29.753Z,24.53
2022-08-10T13:56:57.857Z,23.83
2022-08-10T14:00:35.420Z,22.53
2022-08-10T14:02:22.841Z,22.78
2022-08-10T14:04:50.790Z,21.83
2022-08-10T14:07:18.275Z,21.76
2022-08-10T14:09:47.628Z,21.43
2022-08-10T14:12:15.273Z,22.57
2022-08-10T14:14:42.802Z,21.63
2022-08-10T14:17:12.433Z,22.49
2022-08-10T14:19:43.466Z,22.57
2022-08-10T14:22:17.062Z,23.38
2022-08-10T14:24:47.053Z,23.84
2022-08-10T14:27:17.913Z,24.45
2022-08-10T14:29:54.908Z,24.67
2022-08-10T14:32:28.455Z,25.07
2022-08-10T14:36:15.491Z,23.67
2022-08-10T14:37:55.647Z,22.81
2022-08-10T14:40:25.983Z,24.01
2022-08-10T14:42:53.916Z,24.19
2022-08-10T14:45:26.656Z,24.17
2022-08-10T14:48:00.959Z,24.25
2022-08-10T14:50:32.463Z,23.83
2022-08-10T14:53:17.335Z,24.45
2022-08-10T14:55:57.719Z,25.38
2022-08-10T14:58:45.725Z,25.27
2022-08-10T15:01:26.977Z,24.96
2022-08-10T15:04:17.458Z,25.03
2022-08-10T15:06:55.184Z,24.14
2022-08-10T15:09:25.207Z,23.82
2022-08-10T15:12:13.534Z,22.74
2022-08-10T15:14:46.219Z,22.50
2022-08-10T15:17:23.449Z,23.39
2022-08-10T15:20:04.577Z,22.03
2022-08-10T15:22:49.962Z,21.85
2022-08-10T15:25:24.180Z,21.75
2022-08-10T15:28:05.218Z,23.85
2022-08-10T15:30:43.865Z,24.19
2022-08-10T15:34:02.307Z,22.99
2022-08-10T15:36:47.139Z,21.86
2022-08-10T15:40:21.395Z,19.76
2022-08-10T15:42:24.469Z,19.95
2022-08-10T15:44:55.834Z,20.05
2022-08-10T15:47:45.797Z,19.74
2022-08-10T15:50:27.690Z,20.50
2022-08-10T15:53:01.810Z,21.00
2022-08-10T15:55:41.862Z,19.93
2022-08-10T15:58:30.303Z,21.53
2022-08-10T16:02:12.981Z,23.06
2022-08-10T16:04:15.611Z,23.37
2022-08-10T16:06:49.137Z,22.80
2022-08-10T16:10:24.790Z,23.53
2022-08-10T16:12:18.546Z,24.46
2022-08-10T16:14:59.922Z,25.19
2022-08-10T16:17:28.221Z,26.32
2022-08-10T16:19:57.880Z,26.13
2022-08-10T16:22:35.345Z,26.33
2022-08-10T16:25:12.268Z,26.00
2022-08-10T16:27:41.012Z,25.98
2022-08-10T16:30:08.022Z,25.87
2022-08-10T16:32:36.370Z,25.15
2022-08-10T16:35:09.015Z,25.77
2022-08-10T16:37:58.795Z,25.64
2022-08-10T16:40:29.291Z,26.32
2022-08-10T16:42:57.446Z,27.48
2022-08-10T16:45:33.039Z,27.25
2022-08-10T16:48:01.411Z,27.95
2022-08-10T16:50:37.589Z,27.76
2022-08-10T16:53:06.982Z,28.23
2022-08-10T16:55:48.440Z,28.69
2022-08-10T16:58:21.860Z,28.43
2022-08-10T17:00:50.041Z,29.07
2022-08-10T17:04:04.396Z,28.75
2022-08-10T17:06:11.606Z,28.88
2022-08-10T17:08:48.723Z,29.09
2022-08-10T17:11:18.370Z,28.84
2022-08-10T17:13:45.402Z,29.26
2022-08-10T17:16:14.362Z,29.26
2022-08-10T17:18:46.771Z,29.06
2022-08-10T17:21:22.188Z,29.50
2022-08-10T17:23:54.862Z,29.45
2022-08-10T17:26:36.078Z,30.16
2022-08-10T17:29:53.467Z,29.38
2022-08-10T17:32:17.381Z,30.56
2022-08-10T17:34:52.367Z,30.22
2022-08-10T17:37:22.001Z,30.55
2022-08-10T17:40:01.997Z,30.94
2022-08-10T17:42:29.688Z,31.43
2022-08-10T17:44:56.946Z,31.73
2022-08-10T17:47:27.295Z,31.86
2022-08-10T17:49:58.661Z,31.89
2022-08-10T17:52:29.411Z,32.05
2022-08-10T17:55:07.363Z,32.68
2022-08-10T17:57:38.735Z,32.49
2022-08-10T18:00:12.827Z,34.48
2022-08-10T18:02:42.670Z,33.13
2022-08-10T18:05:11.488Z,33.89
2022-08-10T18:07:43.521Z,33.57
2022-08-10T18:10:14.366Z,33.60
2022-08-10T18:12:47.429Z,34.24
2022-08-10T18:15:19.117Z,33.97
2022-08-10T18:17:58.379Z,34.89
2022-08-10T18:20:33.410Z,35.57
2022-08-10T18:23:01.671Z,33.69
2022-08-10T18:25:32.834Z,34.10
2022-08-10T18:28:04.951Z,35.52
2022-08-10T18:30:46.044Z,33.77
2022-08-10T18:33:14.104Z,34.67
2022-08-10T18:35:41.662Z,35.10
2022-08-10T18:38:10.830Z,34.88
2022-08-10T18:40:43.374Z,34.21
2022-08-10T18:44:07.002Z,34.57
2022-08-10T18:46:01.055Z,34.93
2022-08-10T18:48:38.667Z,34.89
2022-08-10T18:51:07.896Z,35.05
2022-08-10T18:53:36.136Z,34.84
2022-08-10T18:56:25.827Z,34.66
2022-08-10T18:59:19.495Z,35.09
2022-08-10T19:02:01.520Z,35.53
2022-08-10T19:05:00.458Z,36.09
2022-08-10T19:07:44.242Z,36.15
2022-08-10T19:10:27.672Z,36.66
2022-08-10T19:13:03.106Z,37.41
2022-08-10T19:15:32.965Z,36.59
2022-08-10T19:18:16.738Z,37.00
2022-08-10T19:21:17.192Z,37.21
2022-08-10T19:23:52.820Z,37.18
2022-08-10T19:26:41.747Z,37.73
2022-08-10T19:30:08.639Z,37.52
2022-08-10T19:32:41.586Z,37.83
2022-08-10T19:35:33.799Z,37.89
2022-08-10T19:38:33.041Z,37.70
2022-08-10T19:41:15.284Z,38.34
2022-08-10T19:44:03.271Z,39.23
2022-08-10T19:46:42.604Z,38.77
2022-08-10T19:49:39.546Z,39.61
2022-08-10T19:52:20.354Z,39.30
2022-08-10T19:55:06.758Z,39.23
2022-08-10T19:57:59.143Z,39.53
2022-08-10T20:00:48.520Z,39.79
2022-08-10T20:03:42.774Z,40.07
2022-08-10T20:06:35.701Z,40.53
2022-08-10T20:09:50.545Z,40.03
2022-08-10T20:12:36.016Z,40.68
2022-08-10T20:15:21.294Z,40.43
2022-08-10T20:18:01.910Z,40.96
2022-08-10T20:20:37.341Z,41.13
2022-08-10T20:23:19.221Z,40.96
2022-08-10T20:26:00.839Z,41.19
2022-08-10T20:28:38.087Z,41.34
2022-08-10T20:31:33.921Z,42.39
2022-08-10T20:34:05.437Z,42.77
2022-08-10T20:36:38.096Z,42.61
2022-08-10T20:39:19.190Z,42.14
2022-08-10T20:42:14.884Z,43.05
2022-08-10T20:44:59.537Z,42.55
2022-08-10T20:47:42.573Z,43.36
2022-08-10T20:50:52.404Z,42.69
2022-08-10T20:53:24.435Z,43.48
2022-08-10T20:55:54.500Z,42.15
2022-08-10T20:58:42.767Z,42.20
2022-08-10T21:01:17.295Z,42.60
2022-08-10T21:04:02.166Z,42.56
2022-08-10T21:07:05.561Z,42.98
2022-08-10T21:09:50.773Z,43.41
2022-08-10T21:12:23.945Z,43.87
2022-08-10T21:15:06.238Z,44.08
2022-08-10T21:17:59.559Z,44.13
2022-08-10T21:20:32.185Z,44.92
2022-08-10T21:23:05.104Z,45.06
